sensor_id;sensor_type;location;lat;lon;timestamp;P1;durP1;ratioP1;P2;durP2;ratioP2
3050;SDS011;1535;51.098;6.414;2022-12-29T00:00:21;5.10;;;4.90;;
3050;SDS011;1535;51.098;6.414;2022-12-29T00:02:48;5.23;;;5.03;;
3050;SDS011;1535;51.098;6.414;2022-12-29T00:05:15;5.33;;;5.13;;
3050;SDS011;1535;51.098;6.414;2022-12-29T00:07:43;5.50;;;5.20;;
3050;SDS011;1535;51.098;6.414;2022-12-29T00:10:10;5.50;;;5.30;;
3050;SDS011;1535;51.098;6.414;2022-12-29T00:12:37;6.10;;;5.90;;
3050;SDS011;1535;51.098;6.414;2022-12-29T00:15:22;6.20;;;6.00;;
3050;SDS011;1535;51.098;6.414;2022-12-29T00:18:04;6.83;;;6.43;;
3050;SDS011;1535;51.098;6.414;2022-12-29T00:20:32;6.13;;;5.93;;
3050;SDS011;1535;51.098;6.414;2022-12-29T00:23:17;5.60;;;5.40;;
3050;SDS011;1535;51.098;6.414;2022-12-29T00:26:04;5.90;;;5.60;;
3050;SDS011;1535;51.098;6.414;2022-12-29T00:28:57;5.80;;;5.57;;
3050;SDS011;1535;51.098;6.414;2022-12-29T00:31:43;5.90;;;5.70;;
3050;SDS011;1535;51.098;6.414;2022-12-29T00:34:28;6.17;;;5.97;;
3050;SDS011;1535;51.098;6.414;2022-12-29T00:37:12;6.00;;;5.80;;
3050;SDS011;1535;51.098;6.414;2022-12-29T00:39:39;7.27;;;6.80;;
3050;SDS011;1535;51.098;6.414;2022-12-29T00:42:23;6.97;;;6.67;;
3050;SDS011;1535;51.098;6.414;2022-12-29T00:45:08;6.60;;;6.40;;
3050;SDS011;1535;51.098;6.414;2022-12-29T00:47:36;7.07;;;6.77;;
3050;SDS011;1535;51.098;6.414;2022-12-29T00:50:03;6.70;;;6.50;;
3050;SDS011;1535;51.098;6.414;2022-12-29T00:52:30;7.00;;;6.80;;
3050;SDS011;1535;51.098;6.414;2022-12-29T00:54:56;7.10;;;6.90;;
3050;SDS011;1535;51.098;6.414;2022-12-29T00:57:23;7.50;;;7.20;;
3050;SDS011;1535;51.098;6.414;2022-12-29T00:59:50;7.93;;;7.33;;
3050;SDS011;1535;51.098;6.414;2022-12-29T01:02:17;6.90;;;6.70;;
3050;SDS011;1535;51.098;6.414;2022-12-29T01:04:45;7.13;;;6.93;;
3050;SDS011;1535;51.098;6.414;2022-12-29T01:07:12;7.20;;;7.00;;
3050;SDS011;1535;51.098;6.414;2022-12-29T01:09:39;6.83;;;6.63;;
3050;SDS011;1535;51.098;6.414;2022-12-29T01:12:23;7.20;;;6.93;;
3050;SDS011;1535;51.098;6.414;2022-12-29T01:15:04;7.13;;;6.83;;
3050;SDS011;1535;51.098;6.414;2022-12-29T01:17:32;6.90;;;6.60;;
3050;SDS011;1535;51.098;6.414;2022-12-29T01:20:01;7.27;;;6.97;;
3050;SDS011;1535;51.098;6.414;2022-12-29T01:22:28;7.73;;;7.43;;
3050;SDS011;1535;51.098;6.414;2022-12-29T01:24:55;7.60;;;7.30;;
3050;SDS011;1535;51.098;6.414;2022-12-29T01:27:22;8.00;;;7.70;;
3050;SDS011;1535;51.098;6.414;2022-12-29T01:29:49;8.10;;;7.80;;
3050;SDS011;1535;51.098;6.414;2022-12-29T01:32:16;8.73;;;8.33;;
3050;SDS011;1535;51.098;6.414;2022-12-29T01:34:43;8.20;;;7.70;;
3050;SDS011;1535;51.098;6.414;2022-12-29T01:37:11;8.50;;;8.07;;
3050;SDS011;1535;51.098;6.414;2022-12-29T01:39:38;8.50;;;8.10;;
3050;SDS011;1535;51.098;6.414;2022-12-29T01:42:05;8.53;;;8.10;;
3050;SDS011;1535;51.098;6.414;2022-12-29T01:47:29;8.83;;;8.33;;
3050;SDS011;1535;51.098;6.414;2022-12-29T01:50:02;9.07;;;8.60;;
3050;SDS011;1535;51.098;6.414;2022-12-29T01:52:34;8.00;;;7.70;;
3050;SDS011;1535;51.098;6.414;2022-12-29T01:55:03;9.07;;;8.67;;
3050;SDS011;1535;51.098;6.414;2022-12-29T01:57:33;8.80;;;8.40;;
3050;SDS011;1535;51.098;6.414;2022-12-29T02:00:03;8.27;;;7.97;;
3050;SDS011;1535;51.098;6.414;2022-12-29T02:02:33;9.10;;;8.70;;
3050;SDS011;1535;51.098;6.414;2022-12-29T02:05:01;9.10;;;8.70;;
3050;SDS011;1535;51.098;6.414;2022-12-29T02:07:36;8.73;;;8.33;;
3050;SDS011;1535;51.098;6.414;2022-12-29T02:10:04;9.37;;;8.97;;
3050;SDS011;1535;51.098;6.414;2022-12-29T02:12:32;9.50;;;9.10;;
3050;SDS011;1535;51.098;6.414;2022-12-29T02:15:00;9.70;;;9.20;;
3050;SDS011;1535;51.098;6.414;2022-12-29T02:17:34;10.47;;;9.67;;
3050;SDS011;1535;51.098;6.414;2022-12-29T02:20:16;9.43;;;9.03;;
3050;SDS011;1535;51.098;6.414;2022-12-29T02:23:21;9.67;;;9.17;;
3050;SDS011;1535;51.098;6.414;2022-12-29T02:26:08;9.20;;;8.70;;
3050;SDS011;1535;51.098;6.414;2022-12-29T02:29:02;9.93;;;9.43;;
3050;SDS011;1535;51.098;6.414;2022-12-29T02:31:48;9.50;;;9.10;;
3050;SDS011;1535;51.098;6.414;2022-12-29T02:34:20;10.03;;;9.53;;
3050;SDS011;1535;51.098;6.414;2022-12-29T02:37:00;9.53;;;9.13;;
3050;SDS011;1535;51.098;6.414;2022-12-29T02:39:34;11.17;;;10.13;;
3050;SDS011;1535;51.098;6.414;2022-12-29T02:42:08;9.50;;;9.10;;
3050;SDS011;1535;51.098;6.414;2022-12-29T02:44:42;9.43;;;9.03;;
3050;SDS011;1535;51.098;6.414;2022-12-29T02:47:20;9.43;;;8.90;;
3050;SDS011;1535;51.098;6.414;2022-12-29T02:49:51;9.13;;;8.77;;
3050;SDS011;1535;51.098;6.414;2022-12-29T02:52:25;8.80;;;8.33;;
3050;SDS011;1535;51.098;6.414;2022-12-29T02:54:55;8.73;;;8.40;;
3050;SDS011;1535;51.098;6.414;2022-12-29T02:57:28;8.77;;;8.37;;
3050;SDS011;1535;51.098;6.414;2022-12-29T02:59:57;8.20;;;7.90;;
3050;SDS011;1535;51.098;6.414;2022-12-29T03:02:31;9.17;;;8.87;;
3050;SDS011;1535;51.098;6.414;2022-12-29T03:05:22;8.83;;;8.37;;
3050;SDS011;1535;51.098;6.414;2022-12-29T03:08:04;8.70;;;8.13;;
3050;SDS011;1535;51.098;6.414;2022-12-29T03:10:38;8.60;;;8.10;;
3050;SDS011;1535;51.098;6.414;2022-12-29T03:13:13;8.60;;;8.10;;
3050;SDS011;1535;51.098;6.414;2022-12-29T03:16:07;8.57;;;8.27;;
3050;SDS011;1535;51.098;6.414;2022-12-29T03:18:46;8.90;;;8.50;;
3050;SDS011;1535;51.098;6.414;2022-12-29T03:21:19;8.67;;;8.20;;
3050;SDS011;1535;51.098;6.414;2022-12-29T03:24:11;8.53;;;8.23;;
3050;SDS011;1535;51.098;6.414;2022-12-29T03:26:39;8.03;;;7.73;;
3050;SDS011;1535;51.098;6.414;2022-12-29T03:29:08;8.60;;;8.00;;
3050;SDS011;1535;51.098;6.414;2022-12-29T03:31:36;8.90;;;8.50;;
3050;SDS011;1535;51.098;6.414;2022-12-29T03:34:05;8.57;;;8.20;;
3050;SDS011;1535;51.098;6.414;2022-12-29T03:36:36;8.27;;;7.97;;
3050;SDS011;1535;51.098;6.414;2022-12-29T03:39:08;8.27;;;7.97;;
3050;SDS011;1535;51.098;6.414;2022-12-29T03:41:39;8.77;;;8.47;;
3050;SDS011;1535;51.098;6.414;2022-12-29T03:44:09;9.40;;;9.00;;
3050;SDS011;1535;51.098;6.414;2022-12-29T03:46:37;9.63;;;9.23;;
3050;SDS011;1535;51.098;6.414;2022-12-29T03:49:03;9.93;;;9.40;;
3050;SDS011;1535;51.098;6.414;2022-12-29T03:51:31;10.10;;;9.70;;
3050;SDS011;1535;51.098;6.414;2022-12-29T03:53:58;9.20;;;8.90;;
3050;SDS011;1535;51.098;6.414;2022-12-29T03:56:25;9.77;;;9.37;;
3050;SDS011;1535;51.098;6.414;2022-12-29T03:58:52;9.40;;;9.10;;
3050;SDS011;1535;51.098;6.414;2022-12-29T04:01:19;9.80;;;9.40;;
3050;SDS011;1535;51.098;6.414;2022-12-29T04:03:46;9.70;;;9.30;;
3050;SDS011;1535;51.098;6.414;2022-12-29T04:06:14;10.20;;;9.67;;
3050;SDS011;1535;51.098;6.414;2022-12-29T04:08:41;9.53;;;9.13;;
3050;SDS011;1535;51.098;6.414;2022-12-29T04:11:08;9.70;;;9.23;;
3050;SDS011;1535;51.098;6.414;2022-12-29T04:13:35;9.77;;;9.30;;
3050;SDS011;1535;51.098;6.414;2022-12-29T04:16:05;10.10;;;9.50;;
3050;SDS011;1535;51.098;6.414;2022-12-29T04:18:32;9.80;;;9.40;;
3050;SDS011;1535;51.098;6.414;2022-12-29T04:21:00;10.10;;;9.70;;
3050;SDS011;1535;51.098;6.414;2022-12-29T04:23:29;10.23;;;9.73;;
3050;SDS011;1535;51.098;6.414;2022-12-29T04:25:56;9.63;;;9.27;;
3050;SDS011;1535;51.098;6.414;2022-12-29T04:28:23;9.83;;;9.43;;
3050;SDS011;1535;51.098;6.414;2022-12-29T04:30:50;9.87;;;9.47;;
3050;SDS011;1535;51.098;6.414;2022-12-29T04:33:17;9.70;;;9.30;;
3050;SDS011;1535;51.098;6.414;2022-12-29T04:35:44;10.23;;;9.73;;
3050;SDS011;1535;51.098;6.414;2022-12-29T04:38:11;10.17;;;9.67;;
3050;SDS011;1535;51.098;6.414;2022-12-29T04:40:40;10.17;;;9.77;;
3050;SDS011;1535;51.098;6.414;2022-12-29T04:43:08;10.10;;;9.70;;
3050;SDS011;1535;51.098;6.414;2022-12-29T04:45:35;9.83;;;9.43;;
3050;SDS011;1535;51.098;6.414;2022-12-29T04:48:03;10.40;;;9.90;;
3050;SDS011;1535;51.098;6.414;2022-12-29T04:50:31;10.07;;;9.67;;
3050;SDS011;1535;51.098;6.414;2022-12-29T04:52:57;11.17;;;10.37;;
3050;SDS011;1535;51.098;6.414;2022-12-29T04:55:24;10.03;;;9.57;;
3050;SDS011;1535;51.098;6.414;2022-12-29T04:57:52;10.43;;;10.03;;
3050;SDS011;1535;51.098;6.414;2022-12-29T05:00:19;10.80;;;10.40;;
3050;SDS011;1535;51.098;6.414;2022-12-29T05:02:46;10.83;;;10.33;;
3050;SDS011;1535;51.098;6.414;2022-12-29T05:05:13;11.00;;;10.53;;
3050;SDS011;1535;51.098;6.414;2022-12-29T05:07:40;11.47;;;10.97;;
3050;SDS011;1535;51.098;6.414;2022-12-29T05:10:07;10.83;;;10.33;;
3050;SDS011;1535;51.098;6.414;2022-12-29T05:12:36;11.47;;;10.97;;
3050;SDS011;1535;51.098;6.414;2022-12-29T05:15:06;11.67;;;11.17;;
3050;SDS011;1535;51.098;6.414;2022-12-29T05:17:35;11.43;;;10.83;;
3050;SDS011;1535;51.098;6.414;2022-12-29T05:20:02;11.17;;;10.60;;
3050;SDS011;1535;51.098;6.414;2022-12-29T05:22:29;11.47;;;10.97;;
3050;SDS011;1535;51.098;6.414;2022-12-29T05:24:56;11.57;;;11.07;;
3050;SDS011;1535;51.098;6.414;2022-12-29T05:27:23;10.80;;;10.40;;
3050;SDS011;1535;51.098;6.414;2022-12-29T05:29:49;11.17;;;10.77;;
3050;SDS011;1535;51.098;6.414;2022-12-29T05:32:17;11.40;;;10.83;;
3050;SDS011;1535;51.098;6.414;2022-12-29T05:34:44;11.40;;;10.90;;
3050;SDS011;1535;51.098;6.414;2022-12-29T05:37:11;11.63;;;11.10;;
3050;SDS011;1535;51.098;6.414;2022-12-29T05:39:38;11.50;;;11.00;;
3050;SDS011;1535;51.098;6.414;2022-12-29T05:42:04;11.80;;;11.30;;
3050;SDS011;1535;51.098;6.414;2022-12-29T05:44:32;12.50;;;11.70;;
3050;SDS011;1535;51.098;6.414;2022-12-29T05:46:59;12.07;;;11.57;;
3050;SDS011;1535;51.098;6.414;2022-12-29T05:49:27;12.30;;;11.60;;
3050;SDS011;1535;51.098;6.414;2022-12-29T05:51:55;11.37;;;10.87;;
3050;SDS011;1535;51.098;6.414;2022-12-29T05:54:22;11.83;;;11.20;;
3050;SDS011;1535;51.098;6.414;2022-12-29T05:56:49;11.30;;;10.80;;
3050;SDS011;1535;51.098;6.414;2022-12-29T05:59:17;12.00;;;11.10;;
3050;SDS011;1535;51.098;6.414;2022-12-29T06:01:44;11.47;;;10.97;;
3050;SDS011;1535;51.098;6.414;2022-12-29T06:04:11;11.90;;;11.23;;
3050;SDS011;1535;51.098;6.414;2022-12-29T06:06:39;12.10;;;11.50;;
3050;SDS011;1535;51.098;6.414;2022-12-29T06:09:06;11.63;;;11.13;;
3050;SDS011;1535;51.098;6.414;2022-12-29T06:11:32;12.20;;;11.40;;
3050;SDS011;1535;51.098;6.414;2022-12-29T06:13:59;13.93;;;11.63;;
3050;SDS011;1535;51.098;6.414;2022-12-29T06:16:26;11.50;;;10.97;;
3050;SDS011;1535;51.098;6.414;2022-12-29T06:18:53;11.20;;;10.60;;
3050;SDS011;1535;51.098;6.414;2022-12-29T06:21:20;12.17;;;11.43;;
3050;SDS011;1535;51.098;6.414;2022-12-29T06:23:48;12.37;;;11.67;;
3050;SDS011;1535;51.098;6.414;2022-12-29T06:26:15;11.80;;;11.30;;
3050;SDS011;1535;51.098;6.414;2022-12-29T06:28:42;12.17;;;11.47;;
3050;SDS011;1535;51.098;6.414;2022-12-29T06:31:09;12.10;;;11.30;;
3050;SDS011;1535;51.098;6.414;2022-12-29T06:33:37;12.80;;;12.00;;
3050;SDS011;1535;51.098;6.414;2022-12-29T06:36:04;12.47;;;11.87;;
3050;SDS011;1535;51.098;6.414;2022-12-29T06:38:31;12.90;;;12.30;;
3050;SDS011;1535;51.098;6.414;2022-12-29T06:41:01;11.90;;;11.40;;
3050;SDS011;1535;51.098;6.414;2022-12-29T06:43:28;12.80;;;12.00;;
3050;SDS011;1535;51.098;6.414;2022-12-29T06:45:55;12.47;;;11.90;;
3050;SDS011;1535;51.098;6.414;2022-12-29T06:48:22;12.80;;;12.13;;
3050;SDS011;1535;51.098;6.414;2022-12-29T06:50:49;14.47;;;12.57;;
3050;SDS011;1535;51.098;6.414;2022-12-29T06:53:15;13.40;;;12.60;;
3050;SDS011;1535;51.098;6.414;2022-12-29T06:55:42;12.77;;;12.17;;
3050;SDS011;1535;51.098;6.414;2022-12-29T06:58:10;13.37;;;12.53;;
3050;SDS011;1535;51.098;6.414;2022-12-29T07:00:37;13.47;;;12.30;;
3050;SDS011;1535;51.098;6.414;2022-12-29T07:03:04;13.20;;;12.50;;
3050;SDS011;1535;51.098;6.414;2022-12-29T07:05:31;13.83;;;12.80;;
3050;SDS011;1535;51.098;6.414;2022-12-29T07:07:58;18.83;;;12.70;;
3050;SDS011;1535;51.098;6.414;2022-12-29T07:10:25;12.90;;;12.20;;
3050;SDS011;1535;51.098;6.414;2022-12-29T07:12:52;27.43;;;12.60;;
3050;SDS011;1535;51.098;6.414;2022-12-29T07:15:21;13.20;;;12.50;;
3050;SDS011;1535;51.098;6.414;2022-12-29T07:17:48;12.77;;;11.80;;
3050;SDS011;1535;51.098;6.414;2022-12-29T07:20:15;12.93;;;11.77;;
3050;SDS011;1535;51.098;6.414;2022-12-29T07:22:42;13.27;;;12.47;;
3050;SDS011;1535;51.098;6.414;2022-12-29T07:25:09;14.30;;;12.90;;
3050;SDS011;1535;51.098;6.414;2022-12-29T07:27:36;14.43;;;13.20;;
3050;SDS011;1535;51.098;6.414;2022-12-29T07:30:03;13.20;;;12.30;;
3050;SDS011;1535;51.098;6.414;2022-12-29T07:32:34;13.40;;;12.60;;
3050;SDS011;1535;51.098;6.414;2022-12-29T07:35:01;13.37;;;12.53;;
3050;SDS011;1535;51.098;6.414;2022-12-29T07:37:28;13.10;;;12.30;;
3050;SDS011;1535;51.098;6.414;2022-12-29T07:39:55;14.00;;;13.00;;
3050;SDS011;1535;51.098;6.414;2022-12-29T07:42:22;14.47;;;13.10;;
3050;SDS011;1535;51.098;6.414;2022-12-29T07:44:49;14.43;;;13.10;;
3050;SDS011;1535;51.098;6.414;2022-12-29T07:47:16;13.67;;;12.60;;
3050;SDS011;1535;51.098;6.414;2022-12-29T07:49:44;13.90;;;12.87;;
3050;SDS011;1535;51.098;6.414;2022-12-29T07:52:12;13.30;;;12.60;;
3050;SDS011;1535;51.098;6.414;2022-12-29T07:54:39;13.33;;;12.63;;
3050;SDS011;1535;51.098;6.414;2022-12-29T07:57:06;15.13;;;14.00;;
3050;SDS011;1535;51.098;6.414;2022-12-29T07:59:33;14.37;;;13.47;;
3050;SDS011;1535;51.098;6.414;2022-12-29T08:01:59;14.57;;;13.57;;
3050;SDS011;1535;51.098;6.414;2022-12-29T08:04:26;15.03;;;13.80;;
3050;SDS011;1535;51.098;6.414;2022-12-29T08:06:54;14.67;;;13.47;;
3050;SDS011;1535;51.098;6.414;2022-12-29T08:09:21;13.70;;;13.00;;
3050;SDS011;1535;51.098;6.414;2022-12-29T08:11:48;14.60;;;13.70;;
3050;SDS011;1535;51.098;6.414;2022-12-29T08:14:15;17.53;;;16.33;;
3050;SDS011;1535;51.098;6.414;2022-12-29T08:16:42;21.63;;;20.13;;
3050;SDS011;1535;51.098;6.414;2022-12-29T08:19:09;25.53;;;22.40;;
3050;SDS011;1535;51.098;6.414;2022-12-29T08:21:36;22.87;;;21.00;;
3050;SDS011;1535;51.098;6.414;2022-12-29T08:24:05;21.87;;;20.00;;
3050;SDS011;1535;51.098;6.414;2022-12-29T08:26:32;20.97;;;18.87;;
3050;SDS011;1535;51.098;6.414;2022-12-29T08:28:59;19.23;;;18.00;;
3050;SDS011;1535;51.098;6.414;2022-12-29T08:31:26;18.90;;;17.17;;
3050;SDS011;1535;51.098;6.414;2022-12-29T08:33:53;18.00;;;16.80;;
3050;SDS011;1535;51.098;6.414;2022-12-29T08:36:19;18.03;;;16.30;;
3050;SDS011;1535;51.098;6.414;2022-12-29T08:38:46;17.43;;;16.23;;
3050;SDS011;1535;51.098;6.414;2022-12-29T08:41:14;17.67;;;16.53;;
3050;SDS011;1535;51.098;6.414;2022-12-29T08:43:44;17.10;;;15.43;;
3050;SDS011;1535;51.098;6.414;2022-12-29T08:46:13;15.80;;;14.97;;
3050;SDS011;1535;51.098;6.414;2022-12-29T08:48:40;15.77;;;14.77;;
3050;SDS011;1535;51.098;6.414;2022-12-29T08:51:07;15.50;;;14.30;;
3050;SDS011;1535;51.098;6.414;2022-12-29T08:53:34;14.57;;;13.50;;
3050;SDS011;1535;51.098;6.414;2022-12-29T08:56:01;13.70;;;12.37;;
3050;SDS011;1535;51.098;6.414;2022-12-29T08:58:31;13.23;;;12.33;;
3050;SDS011;1535;51.098;6.414;2022-12-29T09:00:58;12.20;;;11.50;;
3050;SDS011;1535;51.098;6.414;2022-12-29T09:03:25;13.83;;;12.27;;
3050;SDS011;1535;51.098;6.414;2022-12-29T09:05:53;13.57;;;12.73;;
3050;SDS011;1535;51.098;6.414;2022-12-29T09:08:21;12.60;;;11.77;;
3050;SDS011;1535;51.098;6.414;2022-12-29T09:10:48;12.63;;;11.83;;
3050;SDS011;1535;51.098;6.414;2022-12-29T09:13:15;13.10;;;12.30;;
3050;SDS011;1535;51.098;6.414;2022-12-29T09:15:44;12.73;;;11.60;;
3050;SDS011;1535;51.098;6.414;2022-12-29T09:18:11;12.83;;;12.13;;
3050;SDS011;1535;51.098;6.414;2022-12-29T09:20:38;13.23;;;12.20;;
3050;SDS011;1535;51.098;6.414;2022-12-29T09:23:05;13.20;;;12.07;;
3050;SDS011;1535;51.098;6.414;2022-12-29T09:25:32;14.13;;;13.17;;
3050;SDS011;1535;51.098;6.414;2022-12-29T09:27:59;12.80;;;11.97;;
3050;SDS011;1535;51.098;6.414;2022-12-29T09:30:29;14.30;;;13.03;;
3050;SDS011;1535;51.098;6.414;2022-12-29T09:32:57;13.70;;;12.40;;
3050;SDS011;1535;51.098;6.414;2022-12-29T09:35:23;13.60;;;12.60;;
3050;SDS011;1535;51.098;6.414;2022-12-29T09:38:04;14.00;;;12.90;;
3050;SDS011;1535;51.098;6.414;2022-12-29T09:40:31;14.00;;;12.93;;
3050;SDS011;1535;51.098;6.414;2022-12-29T09:43:04;14.87;;;13.80;;
3050;SDS011;1535;51.098;6.414;2022-12-29T09:45:50;14.50;;;13.07;;
3050;SDS011;1535;51.098;6.414;2022-12-29T09:48:27;14.93;;;13.40;;
3050;SDS011;1535;51.098;6.414;2022-12-29T09:50:57;15.30;;;14.40;;
3050;SDS011;1535;51.098;6.414;2022-12-29T09:53:29;19.60;;;14.30;;
3050;SDS011;1535;51.098;6.414;2022-12-29T09:56:02;15.00;;;13.70;;
3050;SDS011;1535;51.098;6.414;2022-12-29T09:58:32;14.63;;;13.70;;
3050;SDS011;1535;51.098;6.414;2022-12-29T10:01:04;15.50;;;14.60;;
3050;SDS011;1535;51.098;6.414;2022-12-29T10:03:40;14.70;;;13.80;;
3050;SDS011;1535;51.098;6.414;2022-12-29T10:06:24;15.50;;;14.27;;
3050;SDS011;1535;51.098;6.414;2022-12-29T10:09:01;14.93;;;13.97;;
3050;SDS011;1535;51.098;6.414;2022-12-29T10:11:35;15.53;;;14.60;;
3050;SDS011;1535;51.098;6.414;2022-12-29T10:14:17;15.73;;;14.63;;
3050;SDS011;1535;51.098;6.414;2022-12-29T10:16:55;14.50;;;13.70;;
3050;SDS011;1535;51.098;6.414;2022-12-29T10:19:41;15.83;;;14.47;;
3050;SDS011;1535;51.098;6.414;2022-12-29T10:22:19;14.87;;;13.97;;
3050;SDS011;1535;51.098;6.414;2022-12-29T10:24:58;14.70;;;13.70;;
3050;SDS011;1535;51.098;6.414;2022-12-29T10:27:28;15.37;;;13.97;;
3050;SDS011;1535;51.098;6.414;2022-12-29T10:29:58;14.50;;;13.40;;
3050;SDS011;1535;51.098;6.414;2022-12-29T10:32:29;14.90;;;13.87;;
3050;SDS011;1535;51.098;6.414;2022-12-29T10:35:03;15.43;;;14.20;;
3050;SDS011;1535;51.098;6.414;2022-12-29T10:37:38;15.10;;;13.77;;
3050;SDS011;1535;51.098;6.414;2022-12-29T10:40:15;14.53;;;13.53;;
3050;SDS011;1535;51.098;6.414;2022-12-29T10:42:50;15.57;;;14.47;;
3050;SDS011;1535;51.098;6.414;2022-12-29T10:45:18;14.70;;;13.87;;
3050;SDS011;1535;51.098;6.414;2022-12-29T10:47:51;15.77;;;14.27;;
3050;SDS011;1535;51.098;6.414;2022-12-29T10:50:23;16.00;;;15.00;;
3050;SDS011;1535;51.098;6.414;2022-12-29T10:52:51;16.30;;;14.80;;
3050;SDS011;1535;51.098;6.414;2022-12-29T10:55:19;15.63;;;14.33;;
3050;SDS011;1535;51.098;6.414;2022-12-29T10:57:49;15.37;;;14.10;;
3050;SDS011;1535;51.098;6.414;2022-12-29T11:00:16;16.90;;;15.60;;
3050;SDS011;1535;51.098;6.414;2022-12-29T11:02:53;15.43;;;14.17;;
3050;SDS011;1535;51.098;6.414;2022-12-29T11:05:44;15.37;;;14.47;;
3050;SDS011;1535;51.098;6.414;2022-12-29T11:08:16;17.37;;;15.77;;
3050;SDS011;1535;51.098;6.414;2022-12-29T11:10:45;15.13;;;14.00;;
3050;SDS011;1535;51.098;6.414;2022-12-29T11:13:24;14.63;;;13.83;;
3050;SDS011;1535;51.098;6.414;2022-12-29T11:15:52;17.27;;;15.63;;
3050;SDS011;1535;51.098;6.414;2022-12-29T11:18:23;16.90;;;14.23;;
3050;SDS011;1535;51.098;6.414;2022-12-29T11:20:52;16.20;;;14.77;;
3050;SDS011;1535;51.098;6.414;2022-12-29T11:23:22;17.17;;;15.57;;
3050;SDS011;1535;51.098;6.414;2022-12-29T11:26:07;15.10;;;14.20;;
3050;SDS011;1535;51.098;6.414;2022-12-29T11:28:40;16.07;;;14.80;;
3050;SDS011;1535;51.098;6.414;2022-12-29T11:31:09;16.03;;;14.83;;
3050;SDS011;1535;51.098;6.414;2022-12-29T11:33:36;15.50;;;14.20;;
3050;SDS011;1535;51.098;6.414;2022-12-29T11:36:06;16.00;;;14.50;;
3050;SDS011;1535;51.098;6.414;2022-12-29T11:38:38;15.47;;;14.00;;
3050;SDS011;1535;51.098;6.414;2022-12-29T11:41:09;17.10;;;13.80;;
3050;SDS011;1535;51.098;6.414;2022-12-29T11:43:40;14.83;;;13.83;;
3050;SDS011;1535;51.098;6.414;2022-12-29T11:46:13;15.57;;;14.57;;
3050;SDS011;1535;51.098;6.414;2022-12-29T11:48:43;15.50;;;14.33;;
3050;SDS011;1535;51.098;6.414;2022-12-29T11:51:11;15.70;;;14.40;;
3050;SDS011;1535;51.098;6.414;2022-12-29T11:53:41;18.70;;;14.10;;
3050;SDS011;1535;51.098;6.414;2022-12-29T11:56:12;14.33;;;13.53;;
3050;SDS011;1535;51.098;6.414;2022-12-29T11:58:41;14.77;;;13.80;;
3050;SDS011;1535;51.098;6.414;2022-12-29T12:01:11;15.23;;;14.10;;
3050;SDS011;1535;51.098;6.414;2022-12-29T12:03:44;15.70;;;14.43;;
3050;SDS011;1535;51.098;6.414;2022-12-29T12:06:16;15.60;;;14.60;;
3050;SDS011;1535;51.098;6.414;2022-12-29T12:08:51;14.50;;;13.70;;
3050;SDS011;1535;51.098;6.414;2022-12-29T12:11:22;14.80;;;13.67;;
3050;SDS011;1535;51.098;6.414;2022-12-29T12:13:55;15.83;;;14.27;;
3050;SDS011;1535;51.098;6.414;2022-12-29T12:16:27;16.07;;;14.73;;
3050;SDS011;1535;51.098;6.414;2022-12-29T12:19:01;14.67;;;13.77;;
3050;SDS011;1535;51.098;6.414;2022-12-29T12:21:38;15.00;;;14.00;;
3050;SDS011;1535;51.098;6.414;2022-12-29T12:24:20;16.27;;;14.63;;
3050;SDS011;1535;51.098;6.414;2022-12-29T12:27:01;15.07;;;13.90;;
3050;SDS011;1535;51.098;6.414;2022-12-29T12:29:36;15.63;;;14.47;;
3050;SDS011;1535;51.098;6.414;2022-12-29T12:32:09;16.70;;;15.30;;
3050;SDS011;1535;51.098;6.414;2022-12-29T12:34:41;15.13;;;13.80;;
3050;SDS011;1535;51.098;6.414;2022-12-29T12:40:20;15.10;;;14.13;;
3050;SDS011;1535;51.098;6.414;2022-12-29T12:43:05;16.10;;;14.90;;
3050;SDS011;1535;51.098;6.414;2022-12-29T12:45:48;15.03;;;13.67;;
3050;SDS011;1535;51.098;6.414;2022-12-29T12:48:31;14.60;;;13.63;;
3050;SDS011;1535;51.098;6.414;2022-12-29T12:51:10;14.60;;;13.80;;
3050;SDS011;1535;51.098;6.414;2022-12-29T12:53:49;15.23;;;14.13;;
3050;SDS011;1535;51.098;6.414;2022-12-29T12:56:34;14.63;;;13.50;;
3050;SDS011;1535;51.098;6.414;2022-12-29T12:59:15;15.00;;;13.90;;
3050;SDS011;1535;51.098;6.414;2022-12-29T13:01:55;15.47;;;14.43;;
3050;SDS011;1535;51.098;6.414;2022-12-29T13:04:37;14.33;;;13.47;;
3050;SDS011;1535;51.098;6.414;2022-12-29T13:07:18;15.00;;;14.10;;
3050;SDS011;1535;51.098;6.414;2022-12-29T13:10:02;14.67;;;13.57;;
3050;SDS011;1535;51.098;6.414;2022-12-29T13:12:45;16.67;;;15.27;;
3050;SDS011;1535;51.098;6.414;2022-12-29T13:15:20;14.23;;;13.13;;
3050;SDS011;1535;51.098;6.414;2022-12-29T13:18:01;14.90;;;13.70;;
3050;SDS011;1535;51.098;6.414;2022-12-29T13:20:37;14.10;;;13.20;;
3050;SDS011;1535;51.098;6.414;2022-12-29T13:23:12;14.93;;;13.83;;
3050;SDS011;1535;51.098;6.414;2022-12-29T13:25:53;14.60;;;13.60;;
3050;SDS011;1535;51.098;6.414;2022-12-29T13:28:29;16.10;;;14.90;;
3050;SDS011;1535;51.098;6.414;2022-12-29T13:31:03;15.50;;;14.03;;
3050;SDS011;1535;51.098;6.414;2022-12-29T13:33:38;16.77;;;15.20;;
3050;SDS011;1535;51.098;6.414;2022-12-29T13:36:17;14.80;;;13.93;;
3050;SDS011;1535;51.098;6.414;2022-12-29T13:38:50;14.10;;;13.50;;
3050;SDS011;1535;51.098;6.414;2022-12-29T13:41:29;14.67;;;13.80;;
3050;SDS011;1535;51.098;6.414;2022-12-29T13:43:59;15.27;;;13.93;;
3050;SDS011;1535;51.098;6.414;2022-12-29T13:46:28;14.40;;;13.40;;
3050;SDS011;1535;51.098;6.414;2022-12-29T13:49:00;14.10;;;13.20;;
3050;SDS011;1535;51.098;6.414;2022-12-29T13:51:31;15.27;;;14.17;;
3050;SDS011;1535;51.098;6.414;2022-12-29T13:54:04;15.40;;;14.60;;
3050;SDS011;1535;51.098;6.414;2022-12-29T13:56:42;16.43;;;15.03;;
3050;SDS011;1535;51.098;6.414;2022-12-29T13:59:17;16.03;;;14.70;;
3050;SDS011;1535;51.098;6.414;2022-12-29T14:01:50;15.30;;;14.10;;
3050;SDS011;1535;51.098;6.414;2022-12-29T14:04:23;14.93;;;14.00;;
3050;SDS011;1535;51.098;6.414;2022-12-29T14:07:02;15.67;;;14.17;;
3050;SDS011;1535;51.098;6.414;2022-12-29T14:09:38;15.50;;;13.90;;
3050;SDS011;1535;51.098;6.414;2022-12-29T14:12:25;15.63;;;14.47;;
3050;SDS011;1535;51.098;6.414;2022-12-29T14:15:02;14.87;;;14.03;;
3050;SDS011;1535;51.098;6.414;2022-12-29T14:17:40;14.67;;;13.63;;
3050;SDS011;1535;51.098;6.414;2022-12-29T14:20:17;14.23;;;13.47;;
3050;SDS011;1535;51.098;6.414;2022-12-29T14:22:55;15.17;;;13.80;;
3050;SDS011;1535;51.098;6.414;2022-12-29T14:28:33;15.40;;;14.37;;
3050;SDS011;1535;51.098;6.414;2022-12-29T14:31:01;15.33;;;14.00;;
3050;SDS011;1535;51.098;6.414;2022-12-29T14:33:29;15.27;;;13.90;;
3050;SDS011;1535;51.098;6.414;2022-12-29T14:38:46;15.37;;;14.03;;
3050;SDS011;1535;51.098;6.414;2022-12-29T14:44:09;14.10;;;13.30;;
3050;SDS011;1535;51.098;6.414;2022-12-29T14:46:43;15.37;;;14.20;;
3050;SDS011;1535;51.098;6.414;2022-12-29T14:49:14;16.27;;;14.97;;
3050;SDS011;1535;51.098;6.414;2022-12-29T14:51:44;16.83;;;15.73;;
3050;SDS011;1535;51.098;6.414;2022-12-29T14:57:20;14.67;;;13.97;;
3050;SDS011;1535;51.098;6.414;2022-12-29T14:59:55;14.30;;;13.50;;
3050;SDS011;1535;51.098;6.414;2022-12-29T15:02:31;15.23;;;14.10;;
3050;SDS011;1535;51.098;6.414;2022-12-29T15:05:03;14.83;;;13.93;;
3050;SDS011;1535;51.098;6.414;2022-12-29T15:07:34;14.57;;;13.53;;
3050;SDS011;1535;51.098;6.414;2022-12-29T15:10:03;16.37;;;13.60;;
3050;SDS011;1535;51.098;6.414;2022-12-29T15:12:33;14.63;;;13.83;;
3050;SDS011;1535;51.098;6.414;2022-12-29T15:15:19;14.70;;;13.60;;
3050;SDS011;1535;51.098;6.414;2022-12-29T15:17:47;14.90;;;13.70;;
3050;SDS011;1535;51.098;6.414;2022-12-29T15:20:17;16.17;;;14.47;;
3050;SDS011;1535;51.098;6.414;2022-12-29T15:22:50;14.13;;;13.33;;
3050;SDS011;1535;51.098;6.414;2022-12-29T15:25:19;16.00;;;14.40;;
3050;SDS011;1535;51.098;6.414;2022-12-29T15:27:48;13.97;;;12.77;;
3050;SDS011;1535;51.098;6.414;2022-12-29T15:30:18;14.63;;;13.43;;
3050;SDS011;1535;51.098;6.414;2022-12-29T15:32:46;16.03;;;14.43;;
3050;SDS011;1535;51.098;6.414;2022-12-29T15:35:22;14.67;;;13.60;;
3050;SDS011;1535;51.098;6.414;2022-12-29T15:37:51;14.90;;;14.00;;